createdAt,value
2022-09-10T00:00:15.363Z,951.28
2022-09-10T00:02:41.725Z,951.23
2022-09-10T00:05:08.028Z,951.22
2022-09-10T00:07:34.393Z,951.25
2022-09-10T00:10:00.728Z,951.21
2022-09-10T00:12:27.073Z,951.31
2022-09-10T00:14:53.429Z,951.36
2022-09-10T00:17:19.771Z,951.27
2022-09-10T00:19:46.087Z,951.28
2022-09-10T00:22:12.473Z,951.35
2022-09-10T00:24:38.791Z,951.37
2022-09-10T00:27:05.137Z,951.39
2022-09-10T00:29:31.493Z,951.35
2022-09-10T00:31:57.839Z,951.37
2022-09-10T00:34:24.156Z,951.31
2022-09-10T00:36:50.523Z,951.40
2022-09-10T00:39:16.865Z,951.44
2022-09-10T00:41:43.204Z,951.46
2022-09-10T00:44:09.556Z,951.39
2022-09-10T00:46:35.879Z,951.43
2022-09-10T00:49:02.225Z,951.37
2022-09-10T00:51:28.616Z,951.33
2022-09-10T00:53:54.949Z,951.33
2022-09-10T00:56:21.271Z,951.33
2022-09-10T00:58:47.620Z,951.21
2022-09-10T01:01:13.982Z,951.27
2022-09-10T01:03:40.306Z,951.31
2022-09-10T01:06:06.689Z,951.26
2022-09-10T01:08:32.992Z,951.23
2022-09-10T01:10:59.374Z,951.23
2022-09-10T01:13:25.725Z,951.22
2022-09-10T01:15:52.141Z,951.08
2022-09-10T01:18:18.425Z,951.12
2022-09-10T01:20:44.810Z,951.24
2022-09-10T01:23:15.712Z,951.21
2022-09-10T01:25:37.475Z,951.21
2022-09-10T01:28:03.802Z,951.19
2022-09-10T01:30:30.136Z,951.17
2022-09-10T01:32:56.453Z,951.04
2022-09-10T01:35:22.838Z,950.99
2022-09-10T01:37:49.178Z,950.98
2022-09-10T01:40:15.501Z,950.93
2022-09-10T01:42:41.849Z,951.03
2022-09-10T01:45:08.199Z,950.91
2022-09-10T01:47:34.522Z,950.87
2022-09-10T01:50:00.874Z,950.96
2022-09-10T01:52:27.214Z,950.93
2022-09-10T01:54:53.559Z,951.02
2022-09-10T01:57:19.895Z,951.05
2022-09-10T01:59:46.237Z,951.07
2022-09-10T02:02:12.628Z,951.00
2022-09-10T02:04:38.903Z,951.06
2022-09-10T02:07:05.220Z,951.13
2022-09-10T02:09:31.565Z,951.21
2022-09-10T02:11:57.916Z,951.28
2022-09-10T02:14:24.239Z,951.35
2022-09-10T02:16:50.584Z,951.21
2022-09-10T02:19:16.943Z,951.15
2022-09-10T02:21:43.282Z,951.08
2022-09-10T02:24:09.624Z,951.05
2022-09-10T02:26:35.965Z,951.10
2022-09-10T02:29:02.344Z,951.14
2022-09-10T02:31:28.687Z,951.15
2022-09-10T02:33:54.987Z,951.17
2022-09-10T02:36:21.354Z,951.12
2022-09-10T02:38:47.688Z,951.15
2022-09-10T02:41:14.002Z,951.12
2022-09-10T02:43:40.369Z,951.18
2022-09-10T02:46:06.708Z,951.16
2022-09-10T02:48:33.051Z,951.23
2022-09-10T02:50:59.416Z,951.21
2022-09-10T02:53:25.762Z,951.21
2022-09-10T02:55:52.129Z,951.22
2022-09-10T02:58:18.462Z,951.23
2022-09-10T03:00:44.845Z,951.18
2022-09-10T03:03:11.143Z,951.14
2022-09-10T03:05:37.496Z,951.16
2022-09-10T03:08:03.821Z,951.24
2022-09-10T03:10:30.147Z,951.25
2022-09-10T03:12:56.478Z,951.21
2022-09-10T03:15:22.828Z,951.30
2022-09-10T03:17:49.182Z,951.27
2022-09-10T03:20:15.498Z,951.31
2022-09-10T03:22:41.826Z,951.25
2022-09-10T03:25:08.174Z,951.20
2022-09-10T03:27:34.512Z,951.20
2022-09-10T03:30:00.844Z,951.15
2022-09-10T03:32:27.198Z,951.13
2022-09-10T03:34:53.531Z,951.02
2022-09-10T03:37:19.877Z,951.03
2022-09-10T03:39:46.349Z,951.07
2022-09-10T03:42:12.535Z,951.09
2022-09-10T03:44:38.853Z,951.09
2022-09-10T03:47:05.189Z,951.07
2022-09-10T03:49:31.510Z,951.05
2022-09-10T03:51:57.857Z,951.07
2022-09-10T03:54:24.202Z,950.99
2022-09-10T03:56:50.520Z,951.08
2022-09-10T03:59:16.842Z,950.99
2022-09-10T04:01:43.195Z,950.93
2022-09-10T04:04:09.534Z,950.97
2022-09-10T04:06:35.858Z,950.86
2022-09-10T04:09:02.216Z,950.89
2022-09-10T04:11:28.534Z,950.90
2022-09-10T04:13:54.873Z,950.90
2022-09-10T04:16:21.254Z,950.98
2022-09-10T04:18:47.614Z,950.97
2022-09-10T04:21:13.938Z,951.03
2022-09-10T04:23:40.260Z,951.06
2022-09-10T04:26:06.632Z,951.08
2022-09-10T04:28:32.954Z,951.15
2022-09-10T04:30:59.282Z,951.20
2022-09-10T04:33:25.629Z,951.28
2022-09-10T04:35:51.996Z,951.38
2022-09-10T04:38:18.334Z,951.33
2022-09-10T04:40:44.675Z,951.35
2022-09-10T04:43:11.019Z,951.31
2022-09-10T04:45:37.346Z,951.16
2022-09-10T04:48:06.838Z,951.09
2022-09-10T04:50:30.048Z,951.17
2022-09-10T04:52:56.369Z,951.11
2022-09-10T04:55:22.692Z,951.10
2022-09-10T04:57:49.075Z,950.95
2022-09-10T05:00:15.396Z,950.95
2022-09-10T05:02:41.717Z,950.98
2022-09-10T05:05:08.103Z,950.88
2022-09-10T05:07:34.442Z,950.95
2022-09-10T05:10:00.761Z,951.07
2022-09-10T05:12:27.085Z,951.04
2022-09-10T05:14:53.409Z,951.10
2022-09-10T05:17:19.750Z,951.15
2022-09-10T05:19:46.099Z,951.21
2022-09-10T05:22:12.421Z,951.26
2022-09-10T05:24:38.784Z,951.28
2022-09-10T05:27:05.108Z,951.35
2022-09-10T05:29:31.430Z,951.24
2022-09-10T05:31:57.890Z,951.33
2022-09-10T05:34:24.161Z,951.40
2022-09-10T05:36:50.477Z,951.42
2022-09-10T05:39:16.828Z,951.32
2022-09-10T05:41:43.153Z,951.35
2022-09-10T05:44:09.491Z,951.34
2022-09-10T05:46:35.832Z,951.21
2022-09-10T05:49:02.172Z,951.16
2022-09-10T05:51:28.493Z,951.21
2022-09-10T05:53:54.816Z,951.15
2022-09-10T05:56:21.171Z,951.22
2022-09-10T05:58:47.493Z,951.23
2022-09-10T06:01:13.829Z,951.19
2022-09-10T06:03:40.211Z,951.16
2022-09-10T06:06:06.550Z,951.25
2022-09-10T06:08:32.981Z,951.31
2022-09-10T06:10:59.266Z,951.22
2022-09-10T06:13:25.599Z,951.25
2022-09-10T06:15:51.941Z,951.22
2022-09-10T06:18:18.284Z,951.19
2022-09-10T06:20:44.633Z,951.17
2022-09-10T06:23:10.948Z,951.19
2022-09-10T06:25:37.323Z,951.17
2022-09-10T06:28:03.651Z,951.26
2022-09-10T06:30:30.082Z,951.10
2022-09-10T06:32:56.346Z,951.18
2022-09-10T06:35:22.690Z,951.10
2022-09-10T06:37:49.013Z,951.16
2022-09-10T06:40:15.338Z,951.14
2022-09-10T06:42:41.713Z,951.19
2022-09-10T06:45:08.029Z,951.28
2022-09-10T06:50:00.722Z,951.24
2022-09-10T06:52:27.046Z,951.19
2022-09-10T06:54:53.375Z,951.19
2022-09-10T06:57:19.718Z,951.16
2022-09-10T06:59:46.069Z,951.17
2022-09-10T07:02:12.414Z,951.19
2022-09-10T07:04:38.737Z,951.21
2022-09-10T07:07:05.076Z,951.13
2022-09-10T07:09:31.404Z,951.14
2022-09-10T07:11:57.757Z,951.13
2022-09-10T07:14:24.080Z,951.17
2022-09-10T07:16:50.422Z,951.20
2022-09-10T07:19:16.802Z,951.27
2022-09-10T07:21:43.252Z,951.25
2022-09-10T07:24:09.600Z,951.28
2022-09-10T07:26:35.934Z,951.23
2022-09-10T07:29:02.293Z,951.20
2022-09-10T07:31:28.637Z,951.12
2022-09-10T07:33:54.976Z,951.18
2022-09-10T07:36:21.335Z,951.22
2022-09-10T07:38:47.662Z,951.18
2022-09-10T07:41:14.003Z,951.19
2022-09-10T07:43:40.357Z,951.26
2022-09-10T07:46:06.724Z,951.22
2022-09-10T07:48:33.047Z,951.28
2022-09-10T07:50:59.365Z,951.33
2022-09-10T07:53:25.694Z,951.30
2022-09-10T07:55:52.022Z,951.27
2022-09-10T07:58:18.373Z,951.21
2022-09-10T08:00:44.685Z,951.24
2022-09-10T08:03:11.017Z,951.21
2022-09-10T08:05:37.366Z,951.23
2022-09-10T08:08:03.685Z,951.20
2022-09-10T08:10:30.019Z,951.23
2022-09-10T08:12:56.366Z,951.26
2022-09-10T08:15:22.713Z,951.28
2022-09-10T08:17:49.066Z,951.33
2022-09-10T08:20:15.417Z,951.28
2022-09-10T08:22:41.753Z,951.26
2022-09-10T08:25:08.073Z,951.22
2022-09-10T08:27:34.440Z,951.21
2022-09-10T08:30:00.779Z,951.22
2022-09-10T08:32:27.123Z,951.04
2022-09-10T08:34:53.440Z,950.98
2022-09-10T08:37:19.798Z,950.91
2022-09-10T08:39:46.195Z,951.00
2022-09-10T08:42:12.482Z,951.01
2022-09-10T08:44:38.797Z,950.99
2022-09-10T08:47:05.133Z,950.97
2022-09-10T08:49:31.479Z,950.96
2022-09-10T08:51:57.800Z,950.96
2022-09-10T08:54:24.122Z,950.88
2022-09-10T08:56:50.453Z,950.97
2022-09-10T08:59:16.773Z,950.99
2022-09-10T09:01:43.359Z,950.98
2022-09-10T09:04:09.679Z,950.96
2022-09-10T09:06:36.025Z,950.99
2022-09-10T09:09:02.380Z,950.93
2022-09-10T09:11:28.729Z,950.89
2022-09-10T09:13:55.048Z,950.87
2022-09-10T09:16:21.398Z,950.84
2022-09-10T09:18:47.775Z,950.86
2022-09-10T09:21:14.135Z,950.77
2022-09-10T09:23:56.837Z,950.68
2022-09-10T09:26:06.904Z,950.63
2022-09-10T09:28:33.533Z,950.59
2022-09-10T09:30:59.891Z,950.46
2022-09-10T09:33:26.232Z,950.47
2022-09-10T09:35:52.576Z,950.48
2022-09-10T09:38:18.907Z,950.44
2022-09-10T09:40:45.272Z,950.37
2022-09-10T09:43:11.612Z,950.34
2022-09-10T09:45:37.993Z,950.27
2022-09-10T09:48:04.309Z,950.20
2022-09-10T09:50:30.639Z,950.19
2022-09-10T09:52:56.960Z,950.14
2022-09-10T09:55:23.316Z,950.14
2022-09-10T09:57:49.674Z,950.13
2022-09-10T10:00:16.000Z,950.06
2022-09-10T10:02:42.342Z,950.05
2022-09-10T10:05:08.725Z,950.01
2022-09-10T10:07:35.066Z,949.96
2022-09-10T10:10:01.407Z,949.93
2022-09-10T10:12:27.745Z,949.99
2022-09-10T10:14:54.075Z,949.85
2022-09-10T10:17:20.419Z,949.92
2022-09-10T10:19:46.760Z,949.78
2022-09-10T10:22:13.106Z,949.73
2022-09-10T10:24:39.446Z,949.70
2022-09-10T10:27:05.788Z,949.66
2022-09-10T10:29:32.093Z,949.62
2022-09-10T10:32:01.553Z,949.60
2022-09-10T10:34:24.813Z,949.57
2022-09-10T10:36:51.149Z,949.64
2022-09-10T10:39:17.491Z,949.49
2022-09-10T10:41:43.811Z,949.58
2022-09-10T10:44:10.158Z,949.52
2022-09-10T10:46:36.552Z,949.49
2022-09-10T10:49:04.030Z,949.52
2022-09-10T10:51:29.171Z,949.52
2022-09-10T10:53:55.591Z,949.43
2022-09-10T10:56:21.911Z,949.36
2022-09-10T10:58:52.260Z,949.32
2022-09-10T11:01:14.684Z,949.23
2022-09-10T11:03:40.972Z,949.13
2022-09-10T11:06:07.312Z,949.26
2022-09-10T11:08:33.641Z,949.20
2022-09-10T11:11:00.033Z,949.24
2022-09-10T11:13:26.386Z,949.23
2022-09-10T11:15:52.764Z,949.30
2022-09-10T11:18:19.101Z,949.38
2022-09-10T11:20:45.419Z,949.71
2022-09-10T11:23:11.746Z,949.78
2022-09-10T11:25:38.069Z,949.88
2022-09-10T11:28:04.397Z,950.27
2022-09-10T11:30:30.721Z,950.24
2022-09-10T11:32:57.072Z,950.19
2022-09-10T11:35:23.414Z,950.25
2022-09-10T11:37:49.732Z,950.21
2022-09-10T11:40:16.082Z,950.15
2022-09-10T11:42:42.383Z,949.98
2022-09-10T11:45:08.712Z,950.07
2022-09-10T11:47:35.070Z,950.16
2022-09-10T11:50:01.402Z,950.21
2022-09-10T11:52:27.745Z,950.17
2022-09-10T11:54:54.133Z,949.93
2022-09-10T11:57:20.457Z,949.92
2022-09-10T11:59:46.804Z,950.07
2022-09-10T12:02:13.350Z,950.09
2022-09-10T12:04:40.875Z,950.25
2022-09-10T12:07:05.873Z,950.33
2022-09-10T12:09:32.208Z,949.95
2022-09-10T12:11:58.554Z,950.01
2022-09-10T12:14:24.871Z,949.98
2022-09-10T12:16:51.219Z,949.90
2022-09-10T12:19:17.562Z,949.82
2022-09-10T12:21:43.905Z,949.68
2022-09-10T12:24:10.233Z,949.53
2022-09-10T12:26:36.580Z,949.56
2022-09-10T12:29:02.906Z,949.47
2022-09-10T12:31:29.334Z,949.34
2022-09-10T12:33:55.602Z,949.29
2022-09-10T12:36:21.966Z,949.23
2022-09-10T12:38:48.312Z,949.30
2022-09-10T12:41:14.640Z,949.21
2022-09-10T12:43:41.149Z,949.13
2022-09-10T12:46:07.420Z,949.09
2022-09-10T12:48:33.648Z,949.08
2022-09-10T12:51:00.040Z,949.04
2022-09-10T12:53:26.368Z,948.99
2022-09-10T12:55:52.720Z,949.01
2022-09-10T12:58:19.082Z,948.96
2022-09-10T13:00:45.401Z,949.01
2022-09-10T13:03:11.752Z,948.95
2022-09-10T13:05:38.113Z,949.00
2022-09-10T13:08:04.487Z,948.96
2022-09-10T13:10:30.828Z,948.86
2022-09-10T13:12:57.171Z,948.88
2022-09-10T13:15:23.520Z,948.86
2022-09-10T13:17:49.865Z,948.95
2022-09-10T13:20:16.209Z,948.94
2022-09-10T13:22:42.527Z,948.96
2022-09-10T13:25:08.862Z,948.88
2022-09-10T13:27:35.185Z,948.89
2022-09-10T13:30:01.535Z,948.89
2022-09-10T13:32:27.851Z,948.89
2022-09-10T13:34:54.236Z,948.91
2022-09-10T13:37:20.578Z,948.98
2022-09-10T13:39:46.949Z,948.98
2022-09-10T13:42:13.275Z,948.93
2022-09-10T13:44:39.615Z,948.85
2022-09-10T13:47:05.936Z,948.90
2022-09-10T13:49:32.302Z,948.85
2022-09-10T13:51:58.645Z,948.84
2022-09-10T13:54:24.987Z,948.83
2022-09-10T13:56:51.606Z,948.81
2022-09-10T13:59:17.938Z,948.71
2022-09-10T14:01:44.306Z,948.77
2022-09-10T14:04:10.650Z,948.79
2022-09-10T14:06:36.991Z,948.63
2022-09-10T14:09:03.335Z,948.60
2022-09-10T14:11:29.678Z,948.55
2022-09-10T14:13:56.026Z,948.51
2022-09-10T14:16:22.357Z,948.49
2022-09-10T14:18:48.680Z,948.47
2022-09-10T14:21:15.065Z,948.53
2022-09-10T14:23:41.472Z,948.55
2022-09-10T14:26:07.702Z,948.49
2022-09-10T14:28:34.029Z,948.52
2022-09-10T14:31:00.435Z,948.55
2022-09-10T14:33:26.722Z,948.56
2022-09-10T14:35:53.045Z,948.49
2022-09-10T14:38:19.381Z,948.48
2022-09-10T14:40:45.702Z,948.52
2022-09-10T14:43:12.054Z,948.49
2022-09-10T14:45:38.400Z,948.47
2022-09-10T14:48:04.831Z,948.42
2022-09-10T14:50:31.212Z,948.35
2022-09-10T14:52:57.506Z,948.41
2022-09-10T14:55:23.888Z,948.40
2022-09-10T14:57:50.237Z,948.27
2022-09-10T15:00:16.573Z,948.31
2022-09-10T15:02:42.945Z,948.31
2022-09-10T15:05:09.305Z,948.25
2022-09-10T15:07:35.617Z,948.31
2022-09-10T15:10:01.994Z,948.29
2022-09-10T15:12:28.345Z,948.36
2022-09-10T15:14:54.672Z,948.40
2022-09-10T15:17:21.017Z,948.41
2022-09-10T15:19:47.426Z,948.54
2022-09-10T15:22:13.749Z,948.59
2022-09-10T15:25:05.521Z,948.64
2022-09-10T15:27:06.581Z,948.67
2022-09-10T15:29:32.903Z,948.85
2022-09-10T15:31:59.297Z,948.85
2022-09-10T15:34:25.615Z,948.87
2022-09-10T15:36:51.947Z,948.77
2022-09-10T15:39:18.333Z,948.75
2022-09-10T15:41:44.657Z,948.72
2022-09-10T15:44:10.987Z,948.81
2022-09-10T15:46:37.395Z,948.91
2022-09-10T15:49:03.671Z,948.96
2022-09-10T15:51:30.008Z,948.94
2022-09-10T15:53:56.365Z,948.93
2022-09-10T15:56:22.736Z,948.98
2022-09-10T15:58:49.058Z,948.99
2022-09-10T16:01:15.415Z,949.02
2022-09-10T16:03:41.711Z,948.96
2022-09-10T16:06:08.032Z,948.86
2022-09-10T16:08:34.383Z,948.85
2022-09-10T16:11:00.703Z,948.91
2022-09-10T16:13:27.067Z,948.90
2022-09-10T16:15:53.426Z,948.80
2022-09-10T16:18:19.721Z,948.85
2022-09-10T16:20:46.048Z,948.86
2022-09-10T16:23:12.397Z,948.91
2022-09-10T16:25:38.736Z,948.93
2022-09-10T16:28:05.138Z,948.93
2022-09-10T16:30:31.449Z,948.82
2022-09-10T16:32:57.786Z,948.88
2022-09-10T16:35:24.134Z,948.88
2022-09-10T16:37:50.469Z,948.89
2022-09-10T16:40:16.897Z,948.89
2022-09-10T16:42:43.192Z,948.94
2022-09-10T16:45:09.507Z,948.97
2022-09-10T16:47:35.877Z,948.97
2022-09-10T16:50:02.204Z,948.95
2022-09-10T16:52:28.528Z,948.96
2022-09-10T16:54:54.875Z,948.93
2022-09-10T16:57:21.201Z,948.97
2022-09-10T16:59:47.527Z,948.98
2022-09-10T17:02:14.055Z,949.00
2022-09-10T17:04:40.414Z,949.06
2022-09-10T17:07:06.741Z,949.20
2022-09-10T17:09:33.086Z,949.21
2022-09-10T17:11:59.429Z,949.31
2022-09-10T17:14:25.771Z,949.27
2022-09-10T17:16:52.097Z,949.32
2022-09-10T17:19:18.457Z,949.38
2022-09-10T17:21:44.806Z,949.44
2022-09-10T17:24:11.147Z,949.46
2022-09-10T17:26:37.470Z,949.43
2022-09-10T17:29:03.852Z,949.41
2022-09-10T17:31:30.257Z,949.41
2022-09-10T17:33:56.528Z,949.42
2022-09-10T17:36:22.864Z,949.37
2022-09-10T17:38:49.214Z,949.44
2022-09-10T17:41:15.547Z,949.43
2022-09-10T17:43:41.953Z,949.40
2022-09-10T17:46:08.233Z,949.39
2022-09-10T17:48:34.556Z,949.44
2022-09-10T17:51:00.902Z,949.46
2022-09-10T17:53:27.223Z,949.50
2022-09-10T17:55:53.574Z,949.52
2022-09-10T17:58:19.963Z,949.58
2022-09-10T18:00:46.285Z,949.60
2022-09-10T18:03:12.712Z,949.56
2022-09-10T18:05:39.091Z,949.62
2022-09-10T18:08:05.408Z,949.54
2022-09-10T18:10:31.767Z,949.49
2022-09-10T18:13:00.271Z,949.56
2022-09-10T18:15:24.471Z,949.61
2022-09-10T18:17:50.812Z,949.64
2022-09-10T18:20:17.144Z,949.63
2022-09-10T18:22:43.464Z,949.55
2022-09-10T18:25:09.824Z,949.61
2022-09-10T18:27:36.169Z,949.62
2022-09-10T18:30:02.489Z,949.69
2022-09-10T18:32:28.835Z,949.67
2022-09-10T18:34:55.159Z,949.70
2022-09-10T18:37:21.498Z,949.70
2022-09-10T18:39:47.860Z,949.70
2022-09-10T18:42:14.196Z,949.74
2022-09-10T18:44:40.547Z,949.79
2022-09-10T18:47:17.877Z,949.82
2022-09-10T18:49:33.203Z,949.94
2022-09-10T18:51:59.533Z,949.99
2022-09-10T18:54:25.858Z,950.02
2022-09-10T18:56:52.258Z,950.06
2022-09-10T18:59:18.605Z,950.08
2022-09-10T19:01:45.028Z,950.13
2022-09-10T19:04:11.288Z,950.15
2022-09-10T19:06:38.634Z,950.17
2022-09-10T19:09:04.987Z,950.19
2022-09-10T19:11:31.340Z,950.23
2022-09-10T19:13:57.678Z,950.22
2022-09-10T19:16:24.029Z,950.26
2022-09-10T19:18:50.445Z,950.22
2022-09-10T19:21:16.779Z,950.20
2022-09-10T19:23:43.122Z,950.16
2022-09-10T19:26:09.789Z,950.15
2022-09-10T19:28:36.110Z,950.11
2022-09-10T19:31:02.437Z,950.19
2022-09-10T19:33:28.756Z,950.25
2022-09-10T19:35:56.681Z,950.23
2022-09-10T19:40:47.795Z,950.09
2022-09-10T19:43:14.121Z,950.10
2022-09-10T19:45:40.444Z,950.15
2022-09-10T19:48:06.812Z,950.13
2022-09-10T19:50:33.162Z,950.09
2022-09-10T19:52:59.493Z,950.14
2022-09-10T19:55:25.819Z,950.13
2022-09-10T19:57:52.175Z,950.18
2022-09-10T20:00:43.084Z,950.19
2022-09-10T20:02:44.919Z,950.13
2022-09-10T20:05:11.193Z,950.16
2022-09-10T20:07:37.585Z,950.18
2022-09-10T20:10:03.933Z,950.20
2022-09-10T20:12:30.277Z,950.19
2022-09-10T20:14:56.619Z,950.24
2022-09-10T20:17:22.942Z,950.34
2022-09-10T20:19:49.262Z,950.41
2022-09-10T20:22:15.621Z,950.46
2022-09-10T20:24:41.961Z,950.49
2022-09-10T20:27:08.322Z,950.54
2022-09-10T20:29:34.708Z,950.58
2022-09-10T20:32:01.058Z,950.60
2022-09-10T20:34:27.398Z,950.68
2022-09-10T20:36:53.731Z,950.65
2022-09-10T20:39:20.096Z,950.62
2022-09-10T20:41:46.426Z,950.69
2022-09-10T20:44:12.775Z,950.65
2022-09-10T20:46:39.152Z,950.65
2022-09-10T20:49:05.459Z,950.64
2022-09-10T20:51:31.808Z,950.68
2022-09-10T20:53:58.163Z,950.69
2022-09-10T20:56:24.488Z,950.68
2022-09-10T20:58:50.810Z,950.70
2022-09-10T21:01:17.257Z,950.72
2022-09-10T21:03:43.519Z,950.63
2022-09-10T21:06:09.871Z,950.66
2022-09-10T21:08:36.209Z,950.65
2022-09-10T21:11:02.598Z,950.66
2022-09-10T21:13:28.929Z,950.64
2022-09-10T21:15:55.289Z,950.66
2022-09-10T21:18:21.602Z,950.69
2022-09-10T21:20:47.948Z,950.70
2022-09-10T21:23:14.269Z,950.72
2022-09-10T21:25:40.594Z,950.76
2022-09-10T21:28:06.942Z,950.71
2022-09-10T21:30:33.285Z,950.70
2022-09-10T21:32:59.626Z,950.73
2022-09-10T21:35:25.974Z,950.63
2022-09-10T21:37:52.312Z,950.69
2022-09-10T21:40:18.669Z,950.75
2022-09-10T21:42:45.019Z,950.71
2022-09-10T21:45:11.369Z,950.69
2022-09-10T21:47:37.739Z,950.74
2022-09-10T21:50:04.061Z,950.78
2022-09-10T21:52:30.386Z,950.84
2022-09-10T21:54:56.730Z,950.80
2022-09-10T21:57:23.056Z,950.77
2022-09-10T21:59:49.401Z,950.77
2022-09-10T22:02:15.914Z,950.75
2022-09-10T22:04:42.102Z,950.71
2022-09-10T22:07:08.426Z,950.70
2022-09-10T22:09:34.792Z,950.76
2022-09-10T22:12:01.135Z,950.78
2022-09-10T22:14:27.477Z,950.81
2022-09-10T22:16:53.800Z,950.71
2022-09-10T22:19:20.148Z,950.72
2022-09-10T22:21:46.470Z,950.69
2022-09-10T22:24:12.848Z,950.68
2022-09-10T22:26:39.187Z,950.71
2022-09-10T22:29:05.517Z,950.71
2022-09-10T22:31:31.907Z,950.69
2022-09-10T22:33:58.197Z,950.75
2022-09-10T22:36:24.514Z,950.73
2022-09-10T22:38:50.885Z,950.81
2022-09-10T22:41:17.223Z,950.86
2022-09-10T22:43:43.577Z,950.88
2022-09-10T22:46:10.023Z,950.89
2022-09-10T22:48:36.245Z,950.93
2022-09-10T22:51:02.571Z,950.91
2022-09-10T22:53:28.958Z,950.86
2022-09-10T22:55:55.272Z,950.79
2022-09-10T22:58:21.623Z,950.78
2022-09-10T23:00:47.960Z,950.81
2022-09-10T23:03:14.305Z,950.69
2022-09-10T23:05:40.634Z,950.68
2022-09-10T23:08:06.981Z,950.67
2022-09-10T23:10:33.310Z,950.62
2022-09-10T23:12:59.674Z,950.59
2022-09-10T23:15:25.991Z,950.66
2022-09-10T23:17:52.359Z,950.65
2022-09-10T23:20:18.725Z,950.63
2022-09-10T23:22:45.068Z,950.60
2022-09-10T23:25:11.388Z,950.55
2022-09-10T23:27:37.743Z,950.54
2022-09-10T23:30:04.082Z,950.56
2022-09-10T23:32:30.437Z,950.59
2022-09-10T23:34:56.781Z,950.66
2022-09-10T23:37:23.109Z,950.67
2022-09-10T23:39:49.495Z,950.74
2022-09-10T23:42:15.791Z,950.75
2022-09-10T23:44:42.113Z,950.71
2022-09-10T23:47:08.456Z,950.70
2022-09-10T23:49:34.776Z,950.70
2022-09-10T23:52:01.105Z,950.65
2022-09-10T23:54:27.454Z,950.68
2022-09-10T23:56:53.802Z,950.67
2022-09-10T23:59:20.119Z,950.62
